sensor_id;sensor_type;location;lat;lon;timestamp;P1;durP1;ratioP1;P2;durP2;ratioP2
80179;SDS011;69505;52.134;5.438;2023-11-19T00:01:33;10.70;;;4.57;;
80179;SDS011;69505;52.134;5.438;2023-11-19T00:04:00;7.95;;;3.35;;
80179;SDS011;69505;52.134;5.438;2023-11-19T00:06:26;8.80;;;3.85;;
80179;SDS011;69505;52.134;5.438;2023-11-19T00:08:54;10.02;;;3.17;;
80179;SDS011;69505;52.134;5.438;2023-11-19T00:11:20;8.68;;;3.70;;
80179;SDS011;69505;52.134;5.438;2023-11-19T00:13:47;10.05;;;3.50;;
80179;SDS011;69505;52.134;5.438;2023-11-19T00:16:14;9.82;;;3.53;;
80179;SDS011;69505;52.134;5.438;2023-11-19T00:18:40;8.43;;;3.42;;
80179;SDS011;69505;52.134;5.438;2023-11-19T00:21:07;10.95;;;3.10;;
80179;SDS011;69505;52.134;5.438;2023-11-19T00:23:37;8.02;;;3.10;;
80179;SDS011;69505;52.134;5.438;2023-11-19T00:26:04;9.60;;;3.38;;
80179;SDS011;69505;52.134;5.438;2023-11-19T00:28:32;14.65;;;3.53;;
80179;SDS011;69505;52.134;5.438;2023-11-19T00:31:00;15.23;;;3.25;;
80179;SDS011;69505;52.134;5.438;2023-11-19T00:33:27;7.25;;;2.55;;
80179;SDS011;69505;52.134;5.438;2023-11-19T00:35:53;7.85;;;3.10;;
80179;SDS011;69505;52.134;5.438;2023-11-19T00:38:20;16.38;;;3.13;;
80179;SDS011;69505;52.134;5.438;2023-11-19T00:40:47;14.52;;;2.60;;
80179;SDS011;69505;52.134;5.438;2023-11-19T00:43:13;10.07;;;2.92;;
80179;SDS011;69505;52.134;5.438;2023-11-19T00:45:40;13.85;;;2.97;;
80179;SDS011;69505;52.134;5.438;2023-11-19T00:48:07;14.35;;;3.00;;
80179;SDS011;69505;52.134;5.438;2023-11-19T00:50:33;14.38;;;2.65;;
80179;SDS011;69505;52.134;5.438;2023-11-19T00:53:03;15.57;;;2.80;;
80179;SDS011;69505;52.134;5.438;2023-11-19T00:55:30;10.57;;;2.65;;
80179;SDS011;69505;52.134;5.438;2023-11-19T00:57:57;13.23;;;3.00;;
80179;SDS011;69505;52.134;5.438;2023-11-19T01:00:23;13.98;;;3.00;;
80179;SDS011;69505;52.134;5.438;2023-11-19T01:02:56;11.57;;;2.80;;
80179;SDS011;69505;52.134;5.438;2023-11-19T01:05:24;12.75;;;2.92;;
80179;SDS011;69505;52.134;5.438;2023-11-19T01:07:51;12.50;;;2.55;;
80179;SDS011;69505;52.134;5.438;2023-11-19T01:10:20;19.20;;;2.75;;
80179;SDS011;69505;52.134;5.438;2023-11-19T01:12:56;14.07;;;2.75;;
80179;SDS011;69505;52.134;5.438;2023-11-19T01:15:23;16.65;;;3.20;;
80179;SDS011;69505;52.134;5.438;2023-11-19T01:17:50;20.60;;;2.97;;
80179;SDS011;69505;52.134;5.438;2023-11-19T01:20:19;16.20;;;2.83;;
80179;SDS011;69505;52.134;5.438;2023-11-19T01:22:47;14.40;;;2.47;;
80179;SDS011;69505;52.134;5.438;2023-11-19T01:25:15;14.02;;;2.92;;
80179;SDS011;69505;52.134;5.438;2023-11-19T01:27:41;19.15;;;2.17;;
80179;SDS011;69505;52.134;5.438;2023-11-19T01:30:08;14.57;;;2.42;;
80179;SDS011;69505;52.134;5.438;2023-11-19T01:32:39;14.32;;;2.67;;
80179;SDS011;69505;52.134;5.438;2023-11-19T01:35:07;19.52;;;2.65;;
80179;SDS011;69505;52.134;5.438;2023-11-19T01:37:37;20.40;;;3.13;;
80179;SDS011;69505;52.134;5.438;2023-11-19T01:40:03;18.88;;;2.75;;
80179;SDS011;69505;52.134;5.438;2023-11-19T01:42:38;18.45;;;3.47;;
80179;SDS011;69505;52.134;5.438;2023-11-19T01:45:05;21.98;;;3.45;;
80179;SDS011;69505;52.134;5.438;2023-11-19T01:47:33;17.83;;;3.15;;
80179;SDS011;69505;52.134;5.438;2023-11-19T01:50:02;19.70;;;2.88;;
80179;SDS011;69505;52.134;5.438;2023-11-19T01:52:33;19.77;;;3.13;;
80179;SDS011;69505;52.134;5.438;2023-11-19T01:55:05;21.45;;;3.72;;
80179;SDS011;69505;52.134;5.438;2023-11-19T01:57:35;22.08;;;4.05;;
80179;SDS011;69505;52.134;5.438;2023-11-19T02:00:04;20.33;;;3.88;;
80179;SDS011;69505;52.134;5.438;2023-11-19T02:02:32;20.17;;;3.15;;
80179;SDS011;69505;52.134;5.438;2023-11-19T02:04:59;15.02;;;3.65;;
80179;SDS011;69505;52.134;5.438;2023-11-19T02:07:26;25.60;;;3.85;;
80179;SDS011;69505;52.134;5.438;2023-11-19T02:09:53;21.80;;;3.63;;
80179;SDS011;69505;52.134;5.438;2023-11-19T02:12:19;22.15;;;3.03;;
80179;SDS011;69505;52.134;5.438;2023-11-19T02:14:47;18.75;;;4.00;;
80179;SDS011;69505;52.134;5.438;2023-11-19T02:17:29;22.27;;;4.05;;
80179;SDS011;69505;52.134;5.438;2023-11-19T02:20:00;25.15;;;3.40;;
80179;SDS011;69505;52.134;5.438;2023-11-19T02:22:27;20.48;;;2.90;;
80179;SDS011;69505;52.134;5.438;2023-11-19T02:24:54;22.92;;;3.70;;
80179;SDS011;69505;52.134;5.438;2023-11-19T02:30:13;24.40;;;3.55;;
80179;SDS011;69505;52.134;5.438;2023-11-19T02:32:41;24.83;;;3.58;;
80179;SDS011;69505;52.134;5.438;2023-11-19T02:35:08;15.82;;;2.97;;
80179;SDS011;69505;52.134;5.438;2023-11-19T02:37:35;19.65;;;3.40;;
80179;SDS011;69505;52.134;5.438;2023-11-19T02:40:02;30.27;;;4.35;;
80179;SDS011;69505;52.134;5.438;2023-11-19T02:42:30;22.10;;;3.33;;
80179;SDS011;69505;52.134;5.438;2023-11-19T02:44:57;31.52;;;4.35;;
80179;SDS011;69505;52.134;5.438;2023-11-19T02:47:24;26.02;;;3.78;;
80179;SDS011;69505;52.134;5.438;2023-11-19T02:49:50;20.75;;;3.75;;
80179;SDS011;69505;52.134;5.438;2023-11-19T02:52:17;23.30;;;5.22;;
80179;SDS011;69505;52.134;5.438;2023-11-19T02:54:45;21.75;;;4.28;;
80179;SDS011;69505;52.134;5.438;2023-11-19T02:57:11;26.95;;;4.25;;
80179;SDS011;69505;52.134;5.438;2023-11-19T02:59:47;29.20;;;3.75;;
80179;SDS011;69505;52.134;5.438;2023-11-19T03:02:15;29.83;;;3.85;;
80179;SDS011;69505;52.134;5.438;2023-11-19T03:04:43;20.83;;;3.97;;
80179;SDS011;69505;52.134;5.438;2023-11-19T03:07:10;24.25;;;3.63;;
80179;SDS011;69505;52.134;5.438;2023-11-19T03:09:36;19.85;;;3.13;;
80179;SDS011;69505;52.134;5.438;2023-11-19T03:12:06;22.67;;;4.20;;
80179;SDS011;69505;52.134;5.438;2023-11-19T03:14:33;24.40;;;3.92;;
80179;SDS011;69505;52.134;5.438;2023-11-19T03:17:02;29.13;;;4.43;;
80179;SDS011;69505;52.134;5.438;2023-11-19T03:19:31;28.98;;;3.50;;
80179;SDS011;69505;52.134;5.438;2023-11-19T03:21:58;31.02;;;4.88;;
80179;SDS011;69505;52.134;5.438;2023-11-19T03:24:26;25.23;;;3.80;;
80179;SDS011;69505;52.134;5.438;2023-11-19T03:26:52;25.77;;;4.32;;
80179;SDS011;69505;52.134;5.438;2023-11-19T03:29:19;29.33;;;4.35;;
80179;SDS011;69505;52.134;5.438;2023-11-19T03:31:46;25.52;;;3.75;;
80179;SDS011;69505;52.134;5.438;2023-11-19T03:34:12;18.55;;;3.50;;
80179;SDS011;69505;52.134;5.438;2023-11-19T03:36:39;25.88;;;3.95;;
80179;SDS011;69505;52.134;5.438;2023-11-19T03:39:06;25.73;;;3.83;;
80179;SDS011;69505;52.134;5.438;2023-11-19T03:41:33;24.80;;;4.45;;
80179;SDS011;69505;52.134;5.438;2023-11-19T03:44:02;22.10;;;4.85;;
80179;SDS011;69505;52.134;5.438;2023-11-19T03:46:29;27.30;;;4.10;;
80179;SDS011;69505;52.134;5.438;2023-11-19T03:48:56;26.15;;;4.53;;
80179;SDS011;69505;52.134;5.438;2023-11-19T03:51:23;32.83;;;5.28;;
80179;SDS011;69505;52.134;5.438;2023-11-19T03:53:49;20.20;;;4.10;;
80179;SDS011;69505;52.134;5.438;2023-11-19T03:56:16;21.63;;;3.88;;
80179;SDS011;69505;52.134;5.438;2023-11-19T03:58:43;30.55;;;4.72;;
80179;SDS011;69505;52.134;5.438;2023-11-19T04:01:12;28.65;;;3.70;;
80179;SDS011;69505;52.134;5.438;2023-11-19T04:03:40;27.35;;;3.65;;
80179;SDS011;69505;52.134;5.438;2023-11-19T04:06:16;24.77;;;3.88;;
80179;SDS011;69505;52.134;5.438;2023-11-19T04:08:43;22.45;;;3.40;;
80179;SDS011;69505;52.134;5.438;2023-11-19T04:11:10;27.42;;;4.30;;
80179;SDS011;69505;52.134;5.438;2023-11-19T04:13:36;31.70;;;3.85;;
80179;SDS011;69505;52.134;5.438;2023-11-19T04:16:03;22.25;;;3.28;;
80179;SDS011;69505;52.134;5.438;2023-11-19T04:18:31;29.50;;;4.72;;
80179;SDS011;69505;52.134;5.438;2023-11-19T04:20:58;28.67;;;4.03;;
80179;SDS011;69505;52.134;5.438;2023-11-19T04:23:24;27.60;;;3.65;;
80179;SDS011;69505;52.134;5.438;2023-11-19T04:25:51;25.52;;;4.28;;
80179;SDS011;69505;52.134;5.438;2023-11-19T04:28:20;26.83;;;4.28;;
80179;SDS011;69505;52.134;5.438;2023-11-19T04:30:47;28.23;;;3.97;;
80179;SDS011;69505;52.134;5.438;2023-11-19T04:33:13;31.00;;;4.00;;
80179;SDS011;69505;52.134;5.438;2023-11-19T04:35:41;22.83;;;3.78;;
80179;SDS011;69505;52.134;5.438;2023-11-19T04:38:08;24.85;;;3.92;;
80179;SDS011;69505;52.134;5.438;2023-11-19T04:40:34;28.92;;;3.40;;
80179;SDS011;69505;52.134;5.438;2023-11-19T04:43:01;32.58;;;3.35;;
80179;SDS011;69505;52.134;5.438;2023-11-19T04:45:28;27.45;;;3.88;;
80179;SDS011;69505;52.134;5.438;2023-11-19T04:47:54;23.80;;;3.92;;
80179;SDS011;69505;52.134;5.438;2023-11-19T04:50:21;19.00;;;3.58;;
80179;SDS011;69505;52.134;5.438;2023-11-19T04:52:47;29.60;;;4.13;;
80179;SDS011;69505;52.134;5.438;2023-11-19T04:55:14;21.73;;;4.32;;
80179;SDS011;69505;52.134;5.438;2023-11-19T04:57:41;40.60;;;5.43;;
80179;SDS011;69505;52.134;5.438;2023-11-19T05:00:08;25.95;;;3.67;;
80179;SDS011;69505;52.134;5.438;2023-11-19T05:02:40;26.50;;;4.65;;
80179;SDS011;69505;52.134;5.438;2023-11-19T05:05:06;19.25;;;3.17;;
80179;SDS011;69505;52.134;5.438;2023-11-19T05:07:33;20.85;;;3.50;;
80179;SDS011;69505;52.134;5.438;2023-11-19T05:10:01;28.35;;;3.97;;
80179;SDS011;69505;52.134;5.438;2023-11-19T05:12:27;26.50;;;3.92;;
80179;SDS011;69505;52.134;5.438;2023-11-19T05:14:54;22.90;;;3.80;;
80179;SDS011;69505;52.134;5.438;2023-11-19T05:17:20;28.15;;;4.40;;
80179;SDS011;69505;52.134;5.438;2023-11-19T05:19:47;26.80;;;4.70;;
80179;SDS011;69505;52.134;5.438;2023-11-19T05:22:14;26.17;;;4.57;;
80179;SDS011;69505;52.134;5.438;2023-11-19T05:24:41;36.35;;;4.05;;
80179;SDS011;69505;52.134;5.438;2023-11-19T05:27:07;24.65;;;4.60;;
80179;SDS011;69505;52.134;5.438;2023-11-19T05:29:37;21.85;;;3.80;;
80179;SDS011;69505;52.134;5.438;2023-11-19T05:32:05;25.27;;;4.55;;
80179;SDS011;69505;52.134;5.438;2023-11-19T05:34:33;30.67;;;3.97;;
80179;SDS011;69505;52.134;5.438;2023-11-19T05:37:00;19.45;;;3.60;;
80179;SDS011;69505;52.134;5.438;2023-11-19T05:39:27;27.05;;;4.22;;
80179;SDS011;69505;52.134;5.438;2023-11-19T05:41:54;24.58;;;3.38;;
80179;SDS011;69505;52.134;5.438;2023-11-19T05:44:20;23.10;;;4.32;;
80179;SDS011;69505;52.134;5.438;2023-11-19T05:46:47;24.55;;;4.07;;
80179;SDS011;69505;52.134;5.438;2023-11-19T05:49:14;22.48;;;3.80;;
80179;SDS011;69505;52.134;5.438;2023-11-19T05:51:41;24.83;;;4.13;;
80179;SDS011;69505;52.134;5.438;2023-11-19T05:54:08;28.80;;;3.78;;
80179;SDS011;69505;52.134;5.438;2023-11-19T05:56:36;29.05;;;3.95;;
80179;SDS011;69505;52.134;5.438;2023-11-19T05:59:02;30.00;;;3.67;;
80179;SDS011;69505;52.134;5.438;2023-11-19T06:01:36;21.58;;;3.53;;
80179;SDS011;69505;52.134;5.438;2023-11-19T06:04:04;26.30;;;5.30;;
80179;SDS011;69505;52.134;5.438;2023-11-19T06:06:31;34.63;;;4.55;;
80179;SDS011;69505;52.134;5.438;2023-11-19T06:08:57;28.52;;;4.18;;
80179;SDS011;69505;52.134;5.438;2023-11-19T06:11:37;28.75;;;4.72;;
80179;SDS011;69505;52.134;5.438;2023-11-19T06:14:04;31.80;;;4.80;;
80179;SDS011;69505;52.134;5.438;2023-11-19T06:16:31;25.45;;;4.07;;
80179;SDS011;69505;52.134;5.438;2023-11-19T06:18:58;22.17;;;4.20;;
80179;SDS011;69505;52.134;5.438;2023-11-19T06:21:25;24.08;;;3.90;;
80179;SDS011;69505;52.134;5.438;2023-11-19T06:23:52;28.95;;;5.03;;
80179;SDS011;69505;52.134;5.438;2023-11-19T06:26:19;23.33;;;3.47;;
80179;SDS011;69505;52.134;5.438;2023-11-19T06:28:47;31.70;;;5.25;;
80179;SDS011;69505;52.134;5.438;2023-11-19T06:31:13;26.13;;;3.88;;
80179;SDS011;69505;52.134;5.438;2023-11-19T06:33:42;28.10;;;4.55;;
80179;SDS011;69505;52.134;5.438;2023-11-19T06:36:09;25.52;;;4.35;;
80179;SDS011;69505;52.134;5.438;2023-11-19T06:38:36;26.55;;;3.90;;
80179;SDS011;69505;52.134;5.438;2023-11-19T06:41:05;31.48;;;3.78;;
80179;SDS011;69505;52.134;5.438;2023-11-19T06:43:33;34.53;;;5.07;;
80179;SDS011;69505;52.134;5.438;2023-11-19T06:46:03;30.40;;;4.43;;
80179;SDS011;69505;52.134;5.438;2023-11-19T06:50:59;20.40;;;3.63;;
80179;SDS011;69505;52.134;5.438;2023-11-19T06:53:26;22.52;;;3.25;;
80179;SDS011;69505;52.134;5.438;2023-11-19T06:55:54;24.35;;;3.40;;
80179;SDS011;69505;52.134;5.438;2023-11-19T06:58:21;25.83;;;3.78;;
80179;SDS011;69505;52.134;5.438;2023-11-19T07:00:47;25.60;;;4.05;;
80179;SDS011;69505;52.134;5.438;2023-11-19T07:03:16;25.63;;;4.03;;
80179;SDS011;69505;52.134;5.438;2023-11-19T07:05:42;28.25;;;3.85;;
80179;SDS011;69505;52.134;5.438;2023-11-19T07:08:10;24.98;;;4.07;;
80179;SDS011;69505;52.134;5.438;2023-11-19T07:10:37;23.10;;;4.30;;
80179;SDS011;69505;52.134;5.438;2023-11-19T07:13:04;29.73;;;4.32;;
80179;SDS011;69505;52.134;5.438;2023-11-19T07:15:32;32.35;;;3.95;;
80179;SDS011;69505;52.134;5.438;2023-11-19T07:17:59;24.10;;;3.95;;
80179;SDS011;69505;52.134;5.438;2023-11-19T07:20:28;27.45;;;4.15;;
80179;SDS011;69505;52.134;5.438;2023-11-19T07:22:55;27.48;;;3.83;;
80179;SDS011;69505;52.134;5.438;2023-11-19T07:25:24;28.77;;;4.15;;
80179;SDS011;69505;52.134;5.438;2023-11-19T07:27:51;27.50;;;3.85;;
80179;SDS011;69505;52.134;5.438;2023-11-19T07:30:18;31.58;;;4.25;;
80179;SDS011;69505;52.134;5.438;2023-11-19T07:32:45;30.08;;;3.70;;
80179;SDS011;69505;52.134;5.438;2023-11-19T07:35:12;29.23;;;4.38;;
80179;SDS011;69505;52.134;5.438;2023-11-19T07:37:38;29.02;;;4.13;;
80179;SDS011;69505;52.134;5.438;2023-11-19T07:40:05;27.48;;;4.15;;
80179;SDS011;69505;52.134;5.438;2023-11-19T07:42:32;28.25;;;4.47;;
80179;SDS011;69505;52.134;5.438;2023-11-19T07:44:59;26.15;;;3.75;;
80179;SDS011;69505;52.134;5.438;2023-11-19T07:47:26;27.83;;;3.75;;
80179;SDS011;69505;52.134;5.438;2023-11-19T07:49:52;21.38;;;3.97;;
80179;SDS011;69505;52.134;5.438;2023-11-19T07:52:19;22.45;;;3.80;;
80179;SDS011;69505;52.134;5.438;2023-11-19T07:54:47;28.50;;;4.15;;
80179;SDS011;69505;52.134;5.438;2023-11-19T07:57:14;23.50;;;4.13;;
80179;SDS011;69505;52.134;5.438;2023-11-19T07:59:41;23.52;;;3.67;;
80179;SDS011;69505;52.134;5.438;2023-11-19T08:02:08;28.98;;;4.18;;
80179;SDS011;69505;52.134;5.438;2023-11-19T08:04:35;21.48;;;3.83;;
80179;SDS011;69505;52.134;5.438;2023-11-19T08:07:02;27.02;;;4.35;;
80179;SDS011;69505;52.134;5.438;2023-11-19T08:09:28;24.35;;;3.55;;
80179;SDS011;69505;52.134;5.438;2023-11-19T08:11:55;28.27;;;3.88;;
80179;SDS011;69505;52.134;5.438;2023-11-19T08:14:24;24.55;;;3.53;;
80179;SDS011;69505;52.134;5.438;2023-11-19T08:16:51;20.83;;;4.05;;
80179;SDS011;69505;52.134;5.438;2023-11-19T08:19:18;27.02;;;3.95;;
80179;SDS011;69505;52.134;5.438;2023-11-19T08:21:44;27.10;;;4.55;;
80179;SDS011;69505;52.134;5.438;2023-11-19T08:24:11;22.88;;;3.25;;
80179;SDS011;69505;52.134;5.438;2023-11-19T08:26:37;28.27;;;4.47;;
80179;SDS011;69505;52.134;5.438;2023-11-19T08:29:04;24.73;;;3.90;;
80179;SDS011;69505;52.134;5.438;2023-11-19T08:31:31;32.90;;;5.13;;
80179;SDS011;69505;52.134;5.438;2023-11-19T08:33:57;21.17;;;3.95;;
80179;SDS011;69505;52.134;5.438;2023-11-19T08:36:24;33.75;;;3.63;;
80179;SDS011;69505;52.134;5.438;2023-11-19T08:38:50;32.28;;;4.35;;
80179;SDS011;69505;52.134;5.438;2023-11-19T08:41:18;29.58;;;4.00;;
80179;SDS011;69505;52.134;5.438;2023-11-19T08:43:45;25.58;;;3.78;;
80179;SDS011;69505;52.134;5.438;2023-11-19T08:46:12;26.45;;;3.92;;
80179;SDS011;69505;52.134;5.438;2023-11-19T08:48:39;21.88;;;3.85;;
80179;SDS011;69505;52.134;5.438;2023-11-19T08:51:06;26.52;;;4.22;;
80179;SDS011;69505;52.134;5.438;2023-11-19T08:53:33;21.30;;;3.50;;
80179;SDS011;69505;52.134;5.438;2023-11-19T08:55:59;30.25;;;4.30;;
80179;SDS011;69505;52.134;5.438;2023-11-19T08:58:28;24.23;;;4.00;;
80179;SDS011;69505;52.134;5.438;2023-11-19T09:00:55;17.48;;;3.08;;
80179;SDS011;69505;52.134;5.438;2023-11-19T09:03:22;28.80;;;4.10;;
80179;SDS011;69505;52.134;5.438;2023-11-19T09:05:49;22.90;;;3.97;;
80179;SDS011;69505;52.134;5.438;2023-11-19T09:08:16;28.50;;;3.75;;
80179;SDS011;69505;52.134;5.438;2023-11-19T09:10:42;23.45;;;3.47;;
80179;SDS011;69505;52.134;5.438;2023-11-19T09:13:09;21.00;;;3.72;;
80179;SDS011;69505;52.134;5.438;2023-11-19T09:15:35;31.52;;;3.95;;
80179;SDS011;69505;52.134;5.438;2023-11-19T09:18:02;22.77;;;3.85;;
80179;SDS011;69505;52.134;5.438;2023-11-19T09:20:29;23.48;;;2.92;;
80179;SDS011;69505;52.134;5.438;2023-11-19T09:23:04;24.13;;;5.05;;
80179;SDS011;69505;52.134;5.438;2023-11-19T09:25:32;31.20;;;4.10;;
80179;SDS011;69505;52.134;5.438;2023-11-19T09:28:11;24.30;;;3.97;;
80179;SDS011;69505;52.134;5.438;2023-11-19T09:30:37;24.05;;;4.63;;
80179;SDS011;69505;52.134;5.438;2023-11-19T09:33:04;25.02;;;3.63;;
80179;SDS011;69505;52.134;5.438;2023-11-19T09:35:32;29.55;;;4.05;;
80179;SDS011;69505;52.134;5.438;2023-11-19T09:37:58;23.92;;;4.10;;
80179;SDS011;69505;52.134;5.438;2023-11-19T09:40:27;19.63;;;3.63;;
80179;SDS011;69505;52.134;5.438;2023-11-19T09:42:54;27.35;;;3.35;;
80179;SDS011;69505;52.134;5.438;2023-11-19T09:45:22;24.13;;;3.13;;
80179;SDS011;69505;52.134;5.438;2023-11-19T09:47:54;21.20;;;3.67;;
80179;SDS011;69505;52.134;5.438;2023-11-19T09:50:23;29.80;;;4.32;;
80179;SDS011;69505;52.134;5.438;2023-11-19T09:52:50;21.60;;;3.58;;
80179;SDS011;69505;52.134;5.438;2023-11-19T09:55:17;24.17;;;4.72;;
80179;SDS011;69505;52.134;5.438;2023-11-19T09:57:44;24.63;;;3.33;;
80179;SDS011;69505;52.134;5.438;2023-11-19T10:00:12;25.10;;;3.85;;
80179;SDS011;69505;52.134;5.438;2023-11-19T10:02:41;21.90;;;3.47;;
80179;SDS011;69505;52.134;5.438;2023-11-19T10:05:12;25.98;;;4.53;;
80179;SDS011;69505;52.134;5.438;2023-11-19T10:07:41;22.40;;;3.33;;
80179;SDS011;69505;52.134;5.438;2023-11-19T10:10:08;28.23;;;3.72;;
80179;SDS011;69505;52.134;5.438;2023-11-19T10:12:37;24.48;;;3.50;;
80179;SDS011;69505;52.134;5.438;2023-11-19T10:15:03;22.05;;;3.72;;
80179;SDS011;69505;52.134;5.438;2023-11-19T10:17:33;24.98;;;4.15;;
80179;SDS011;69505;52.134;5.438;2023-11-19T10:20:00;17.88;;;3.42;;
80179;SDS011;69505;52.134;5.438;2023-11-19T10:22:27;24.33;;;4.65;;
80179;SDS011;69505;52.134;5.438;2023-11-19T10:24:54;26.23;;;3.08;;
80179;SDS011;69505;52.134;5.438;2023-11-19T10:27:23;17.08;;;3.03;;
80179;SDS011;69505;52.134;5.438;2023-11-19T10:32:17;21.58;;;3.80;;
80179;SDS011;69505;52.134;5.438;2023-11-19T10:34:52;20.00;;;3.42;;
80179;SDS011;69505;52.134;5.438;2023-11-19T10:37:31;25.73;;;3.40;;
80179;SDS011;69505;52.134;5.438;2023-11-19T10:39:59;20.98;;;3.88;;
80179;SDS011;69505;52.134;5.438;2023-11-19T10:42:26;27.88;;;5.25;;
80179;SDS011;69505;52.134;5.438;2023-11-19T10:44:52;20.00;;;3.63;;
80179;SDS011;69505;52.134;5.438;2023-11-19T10:47:19;23.55;;;3.47;;
80179;SDS011;69505;52.134;5.438;2023-11-19T10:50:03;24.25;;;3.67;;
80179;SDS011;69505;52.134;5.438;2023-11-19T10:52:30;21.25;;;3.38;;
80179;SDS011;69505;52.134;5.438;2023-11-19T10:54:58;21.85;;;3.42;;
80179;SDS011;69505;52.134;5.438;2023-11-19T10:57:27;23.75;;;2.88;;
80179;SDS011;69505;52.134;5.438;2023-11-19T11:00:00;17.98;;;3.60;;
80179;SDS011;69505;52.134;5.438;2023-11-19T11:02:29;24.95;;;3.42;;
80179;SDS011;69505;52.134;5.438;2023-11-19T11:05:00;16.15;;;2.30;;
80179;SDS011;69505;52.134;5.438;2023-11-19T11:07:29;21.92;;;3.33;;
80179;SDS011;69505;52.134;5.438;2023-11-19T11:10:06;20.63;;;3.50;;
80179;SDS011;69505;52.134;5.438;2023-11-19T11:12:36;22.50;;;3.67;;
80179;SDS011;69505;52.134;5.438;2023-11-19T11:15:04;24.30;;;3.58;;
80179;SDS011;69505;52.134;5.438;2023-11-19T11:20:01;28.15;;;3.22;;
80179;SDS011;69505;52.134;5.438;2023-11-19T11:22:29;25.80;;;3.83;;
80179;SDS011;69505;52.134;5.438;2023-11-19T11:27:57;18.15;;;3.30;;
80179;SDS011;69505;52.134;5.438;2023-11-19T11:31:02;21.77;;;3.13;;
80179;SDS011;69505;52.134;5.438;2023-11-19T11:36:34;19.10;;;3.47;;
80179;SDS011;69505;52.134;5.438;2023-11-19T11:39:21;25.58;;;4.20;;
80179;SDS011;69505;52.134;5.438;2023-11-19T11:42:17;23.83;;;4.07;;
80179;SDS011;69505;52.134;5.438;2023-11-19T11:44:57;17.70;;;3.17;;
80179;SDS011;69505;52.134;5.438;2023-11-19T11:48:22;16.95;;;2.88;;
80179;SDS011;69505;52.134;5.438;2023-11-19T11:50:23;21.00;;;3.60;;
80179;SDS011;69505;52.134;5.438;2023-11-19T11:57:50;20.98;;;3.60;;
80179;SDS011;69505;52.134;5.438;2023-11-19T12:02:55;18.58;;;3.72;;
80179;SDS011;69505;52.134;5.438;2023-11-19T12:05:22;23.42;;;3.50;;
80179;SDS011;69505;52.134;5.438;2023-11-19T12:08:05;21.35;;;3.65;;
80179;SDS011;69505;52.134;5.438;2023-11-19T12:10:36;21.52;;;3.88;;
80179;SDS011;69505;52.134;5.438;2023-11-19T12:13:09;24.15;;;3.25;;
80179;SDS011;69505;52.134;5.438;2023-11-19T12:18:27;20.65;;;3.35;;
80179;SDS011;69505;52.134;5.438;2023-11-19T12:20:55;24.58;;;3.53;;
80179;SDS011;69505;52.134;5.438;2023-11-19T12:23:22;16.20;;;3.28;;
80179;SDS011;69505;52.134;5.438;2023-11-19T12:25:50;15.57;;;2.92;;
80179;SDS011;69505;52.134;5.438;2023-11-19T12:28:16;15.10;;;2.67;;
80179;SDS011;69505;52.134;5.438;2023-11-19T12:30:44;15.73;;;2.90;;
80179;SDS011;69505;52.134;5.438;2023-11-19T12:33:11;15.63;;;2.78;;
80179;SDS011;69505;52.134;5.438;2023-11-19T12:35:42;18.33;;;2.55;;
80179;SDS011;69505;52.134;5.438;2023-11-19T12:38:23;14.02;;;2.55;;
80179;SDS011;69505;52.134;5.438;2023-11-19T12:41:03;15.13;;;3.00;;
80179;SDS011;69505;52.134;5.438;2023-11-19T12:43:31;16.83;;;3.40;;
80179;SDS011;69505;52.134;5.438;2023-11-19T12:45:58;11.85;;;2.75;;
80179;SDS011;69505;52.134;5.438;2023-11-19T12:48:24;17.23;;;3.40;;
80179;SDS011;69505;52.134;5.438;2023-11-19T12:53:25;16.85;;;2.80;;
80179;SDS011;69505;52.134;5.438;2023-11-19T12:55:52;18.30;;;3.05;;
80179;SDS011;69505;52.134;5.438;2023-11-19T12:58:31;14.38;;;3.13;;
80179;SDS011;69505;52.134;5.438;2023-11-19T13:00:59;25.17;;;3.53;;
80179;SDS011;69505;52.134;5.438;2023-11-19T13:03:31;19.25;;;2.90;;
80179;SDS011;69505;52.134;5.438;2023-11-19T13:06:02;21.90;;;3.55;;
80179;SDS011;69505;52.134;5.438;2023-11-19T13:08:38;17.63;;;2.97;;
80179;SDS011;69505;52.134;5.438;2023-11-19T13:11:06;17.80;;;3.22;;
80179;SDS011;69505;52.134;5.438;2023-11-19T13:13:54;13.52;;;2.80;;
80179;SDS011;69505;52.134;5.438;2023-11-19T13:16:22;16.38;;;2.95;;
80179;SDS011;69505;52.134;5.438;2023-11-19T13:18:49;20.73;;;3.22;;
80179;SDS011;69505;52.134;5.438;2023-11-19T13:21:16;17.83;;;2.83;;
80179;SDS011;69505;52.134;5.438;2023-11-19T13:23:43;18.40;;;3.72;;
80179;SDS011;69505;52.134;5.438;2023-11-19T13:26:10;18.10;;;2.75;;
80179;SDS011;69505;52.134;5.438;2023-11-19T13:28:37;15.93;;;3.10;;
80179;SDS011;69505;52.134;5.438;2023-11-19T13:31:04;19.80;;;3.42;;
80179;SDS011;69505;52.134;5.438;2023-11-19T13:33:31;21.02;;;4.18;;
80179;SDS011;69505;52.134;5.438;2023-11-19T13:35:58;19.17;;;3.13;;
80179;SDS011;69505;52.134;5.438;2023-11-19T13:38:28;21.00;;;3.28;;
80179;SDS011;69505;52.134;5.438;2023-11-19T13:40:54;21.95;;;3.65;;
80179;SDS011;69505;52.134;5.438;2023-11-19T13:43:21;18.85;;;4.05;;
80179;SDS011;69505;52.134;5.438;2023-11-19T13:45:50;26.20;;;3.38;;
80179;SDS011;69505;52.134;5.438;2023-11-19T13:48:17;18.02;;;4.00;;
80179;SDS011;69505;52.134;5.438;2023-11-19T13:50:43;21.42;;;2.83;;
80179;SDS011;69505;52.134;5.438;2023-11-19T13:53:10;21.08;;;4.07;;
80179;SDS011;69505;52.134;5.438;2023-11-19T13:55:37;19.42;;;3.28;;
80179;SDS011;69505;52.134;5.438;2023-11-19T13:58:03;16.23;;;2.78;;
80179;SDS011;69505;52.134;5.438;2023-11-19T14:00:30;17.27;;;3.10;;
80179;SDS011;69505;52.134;5.438;2023-11-19T14:02:56;22.73;;;3.53;;
80179;SDS011;69505;52.134;5.438;2023-11-19T14:05:23;17.92;;;3.30;;
80179;SDS011;69505;52.134;5.438;2023-11-19T14:07:53;19.95;;;3.50;;
80179;SDS011;69505;52.134;5.438;2023-11-19T14:10:22;18.08;;;3.22;;
80179;SDS011;69505;52.134;5.438;2023-11-19T14:12:49;17.48;;;3.08;;
80179;SDS011;69505;52.134;5.438;2023-11-19T14:15:18;13.90;;;2.75;;
80179;SDS011;69505;52.134;5.438;2023-11-19T14:17:45;15.65;;;2.83;;
80179;SDS011;69505;52.134;5.438;2023-11-19T14:20:12;15.73;;;2.45;;
80179;SDS011;69505;52.134;5.438;2023-11-19T14:22:39;16.45;;;2.90;;
80179;SDS011;69505;52.134;5.438;2023-11-19T14:25:07;17.30;;;3.33;;
80179;SDS011;69505;52.134;5.438;2023-11-19T14:27:39;20.05;;;3.70;;
80179;SDS011;69505;52.134;5.438;2023-11-19T14:30:07;16.52;;;2.72;;
80179;SDS011;69505;52.134;5.438;2023-11-19T14:32:35;13.82;;;3.03;;
80179;SDS011;69505;52.134;5.438;2023-11-19T14:35:03;18.58;;;3.42;;
80179;SDS011;69505;52.134;5.438;2023-11-19T14:37:33;20.00;;;4.10;;
80179;SDS011;69505;52.134;5.438;2023-11-19T14:40:00;18.90;;;3.47;;
80179;SDS011;69505;52.134;5.438;2023-11-19T14:42:30;14.88;;;3.38;;
80179;SDS011;69505;52.134;5.438;2023-11-19T14:44:57;14.10;;;2.60;;
80179;SDS011;69505;52.134;5.438;2023-11-19T14:47:23;19.95;;;2.78;;
80179;SDS011;69505;52.134;5.438;2023-11-19T14:49:50;17.38;;;2.75;;
80179;SDS011;69505;52.134;5.438;2023-11-19T14:52:17;17.05;;;3.35;;
80179;SDS011;69505;52.134;5.438;2023-11-19T14:54:44;20.88;;;3.53;;
80179;SDS011;69505;52.134;5.438;2023-11-19T14:57:11;19.92;;;3.20;;
80179;SDS011;69505;52.134;5.438;2023-11-19T14:59:37;23.67;;;3.55;;
80179;SDS011;69505;52.134;5.438;2023-11-19T15:02:04;22.02;;;3.28;;
80179;SDS011;69505;52.134;5.438;2023-11-19T15:04:32;16.45;;;2.80;;
80179;SDS011;69505;52.134;5.438;2023-11-19T15:06:59;18.67;;;2.72;;
80179;SDS011;69505;52.134;5.438;2023-11-19T15:09:26;19.80;;;3.20;;
80179;SDS011;69505;52.134;5.438;2023-11-19T15:11:53;17.50;;;3.55;;